Floyds Knobs, IN (47119)

4:49 AM EDT on October 31, 2014 (GMT -0400)
Doug and Ginger | Change Station
CLOSE
Current Station
Personal Weather Station
Location: Floyds Knobs, IN
Elevation: 735 ft
Nearby Weather Stations
Active Advisory: Freeze Watch, Special Statement

Elev 735 ft 38.36 °N, 85.92 °W | Updated 2 minutes ago

Rain
Rain
45.0 °F
Feels Like 45 °F
N
0.0
Wind Variable Wind from SW

Today
High -- | Low -- °F
--% Chance of Precip.
Yesterday
High -- | Low -- °F
Precip. -- in
8:08 AM 6:45 PM
First Quarter, 53% visible
Pressure 30.01 in
Visibility 10.0 miles
Clouds Overcast 5500 ft
Windchill 45 °F
Dew Point 45 °F
Humidity 99%
Rainfall 0.00 in
Snow Depth Not available.
UV 0 out of 12
Pollen .20 out of 12
Air Quality Not available.
Flu Activity Not available.
METAR KSDF 310756Z 14006KT 10SM -RA OVC055 09/05 A3001 RMK AO2 RAB26 SLP163 P0000 T00890050

More Conditions Fewer Conditions

Pressure 30.01 in
Visibility 10.0 miles
Clouds Overcast 5500 ft
Windchill 45 °F
Dew Point 45 °F
Humidity 99%
Rainfall 0.00 in
Snow Depth Not available.
UV 0 out of 12
Pollen .20 out of 12
Air Quality Not available.
Flu Activity Not available.
METAR KSDF 310756Z 14006KT 10SM -RA OVC055 09/05 A3001 RMK AO2 RAB26 SLP163 P0000 T00890050

More Conditions Fewer Conditions

10-Day Weather Forecast

Almanac

Astronomy

Oct. 31, 2014 Rise Set
Actual Time
Civil Twilight
Nautical Twilight
Astronomical Twilight
Moon
Length of Visible Light
Length of Day
Tomorrow will be .
, % of the Moon is Illuminated

Today's Extremes

State Highs State Lows

Community

WunderPhotos

Upload Photos

1,766,573 photos uploaded!

WunderBlogs® & News

Nearby

Air Quality

  Air Quality AQ Index Pollutant
Not available.

Snow Depth

Station Depth Elevation

Earthquake Activity

City Distance Mag. Time & Date
Minimum magnitude displayed is 2.5.

Coastal Water Temperatures

Place Temperature

Nearby Weather Stations